createdAt,value
2022-11-17T00:00:59.788Z,7.97
2022-11-17T00:01:59.838Z,7.85
2022-11-17T00:02:59.784Z,7.85
2022-11-17T00:03:59.780Z,7.74
2022-11-17T00:04:59.771Z,7.75
2022-11-17T00:05:59.770Z,7.89
2022-11-17T00:06:59.813Z,7.74
2022-11-17T00:07:59.789Z,7.69
2022-11-17T00:08:59.770Z,7.75
2022-11-17T00:09:59.753Z,7.77
2022-11-17T00:10:59.752Z,7.69
2022-11-17T00:11:59.748Z,7.71
2022-11-17T00:12:59.745Z,7.79
2022-11-17T00:13:59.747Z,7.83
2022-11-17T00:14:59.734Z,7.85
2022-11-17T00:15:59.733Z,7.97
2022-11-17T00:16:59.727Z,7.92
2022-11-17T00:17:59.725Z,7.97
2022-11-17T00:18:59.723Z,8.02
2022-11-17T00:19:59.718Z,7.92
2022-11-17T00:20:59.715Z,7.92
2022-11-17T00:21:59.708Z,7.86
2022-11-17T00:22:59.705Z,7.86
2022-11-17T00:23:59.825Z,7.79
2022-11-17T00:24:59.696Z,7.86
2022-11-17T00:25:59.695Z,7.83
2022-11-17T00:26:59.690Z,7.97
2022-11-17T00:27:59.686Z,7.85
2022-11-17T00:28:59.686Z,7.74
2022-11-17T00:29:59.682Z,7.55
2022-11-17T00:30:59.675Z,7.50
2022-11-17T00:31:59.669Z,7.50
2022-11-17T00:32:59.665Z,7.52
2022-11-17T00:33:59.664Z,7.50
2022-11-17T00:34:59.656Z,7.40
2022-11-17T00:35:59.658Z,7.60
2022-11-17T00:36:59.650Z,7.58
2022-11-17T00:37:59.651Z,7.71
2022-11-17T00:38:59.645Z,7.71
2022-11-17T00:40:01.262Z,7.75
2022-11-17T00:40:59.635Z,7.43
2022-11-17T00:41:59.633Z,7.45
2022-11-17T00:42:59.627Z,7.45
2022-11-17T00:43:59.626Z,7.52
2022-11-17T00:44:59.620Z,7.48
2022-11-17T00:45:59.616Z,7.48
2022-11-17T00:46:59.615Z,7.49
2022-11-17T00:47:59.615Z,7.46
2022-11-17T00:48:59.610Z,7.42
2022-11-17T00:49:59.600Z,7.53
2022-11-17T00:50:59.610Z,7.52
2022-11-17T00:51:59.596Z,7.58
2022-11-17T00:52:59.594Z,7.77
2022-11-17T00:53:59.585Z,7.68
2022-11-17T00:54:59.636Z,7.72
2022-11-17T00:55:59.593Z,7.71
2022-11-17T00:56:59.571Z,7.45
2022-11-17T00:57:59.568Z,7.42
2022-11-17T00:58:59.563Z,7.42
2022-11-17T00:59:59.563Z,7.34
2022-11-17T01:00:59.574Z,7.40
2022-11-17T01:01:59.633Z,7.42
2022-11-17T01:02:59.556Z,7.45
2022-11-17T01:03:59.545Z,7.40
2022-11-17T01:04:59.538Z,7.34
2022-11-17T01:05:59.533Z,7.39
2022-11-17T01:06:59.569Z,7.37
2022-11-17T01:07:59.530Z,7.39
2022-11-17T01:08:59.521Z,7.42
2022-11-17T01:09:59.518Z,7.48
2022-11-17T01:10:59.570Z,7.43
2022-11-17T01:11:59.581Z,7.39
2022-11-17T01:12:59.509Z,7.53
2022-11-17T01:13:59.503Z,7.49
2022-11-17T01:14:59.501Z,7.42
2022-11-17T01:15:59.497Z,7.50
2022-11-17T01:16:59.487Z,7.45
2022-11-17T01:17:59.486Z,7.52
2022-11-17T01:18:59.479Z,7.49
2022-11-17T01:19:59.484Z,7.61
2022-11-17T01:20:59.474Z,7.46
2022-11-17T01:21:59.470Z,7.45
2022-11-17T01:22:59.466Z,7.50
2022-11-17T01:23:59.465Z,7.52
2022-11-17T01:24:59.457Z,7.27
2022-11-17T01:25:59.452Z,7.40
2022-11-17T01:26:59.451Z,7.35
2022-11-17T01:27:59.561Z,7.40
2022-11-17T01:28:59.443Z,7.52
2022-11-17T01:29:59.437Z,7.49
2022-11-17T01:30:59.438Z,7.40
2022-11-17T01:31:59.429Z,7.37
2022-11-17T01:32:59.431Z,7.31
2022-11-17T01:33:59.422Z,7.45
2022-11-17T01:34:59.418Z,7.40
2022-11-17T01:35:59.418Z,7.37
2022-11-17T01:36:59.409Z,7.39
2022-11-17T01:37:59.409Z,7.37
2022-11-17T01:38:59.398Z,7.28
2022-11-17T01:39:59.421Z,7.27
2022-11-17T01:40:59.392Z,7.30
2022-11-17T01:41:59.410Z,7.34
2022-11-17T01:42:59.403Z,7.40
2022-11-17T01:43:59.520Z,7.40
2022-11-17T01:44:59.428Z,7.32
2022-11-17T01:45:59.392Z,7.43
2022-11-17T01:47:01.030Z,7.43
2022-11-17T01:47:59.363Z,7.42
2022-11-17T01:48:59.354Z,7.42
2022-11-17T01:49:59.353Z,7.39
2022-11-17T01:50:59.355Z,7.42
2022-11-17T01:51:59.349Z,7.46
2022-11-17T01:52:59.344Z,7.40
2022-11-17T01:53:59.339Z,7.32
2022-11-17T01:54:59.336Z,7.43
2022-11-17T01:55:59.330Z,7.30
2022-11-17T01:56:59.324Z,7.30
2022-11-17T01:57:59.323Z,7.42
2022-11-17T01:58:59.316Z,7.46
2022-11-17T01:59:59.433Z,7.50
2022-11-17T02:00:59.308Z,7.32
2022-11-17T02:01:59.402Z,7.35
2022-11-17T02:02:59.301Z,7.34
2022-11-17T02:03:59.299Z,7.35
2022-11-17T02:04:59.293Z,7.43
2022-11-17T02:05:59.286Z,7.48
2022-11-17T02:06:59.340Z,7.39
2022-11-17T02:07:59.279Z,7.34
2022-11-17T02:08:59.276Z,7.37
2022-11-17T02:09:59.275Z,7.35
2022-11-17T02:10:59.267Z,7.16
2022-11-17T02:11:59.266Z,7.23
2022-11-17T02:12:59.262Z,7.20
2022-11-17T02:13:59.254Z,7.23
2022-11-17T02:14:59.255Z,7.20
2022-11-17T02:15:59.360Z,7.23
2022-11-17T02:17:06.993Z,7.31
2022-11-17T02:17:59.242Z,7.32
2022-11-17T02:18:59.231Z,7.32
2022-11-17T02:19:59.227Z,7.35
2022-11-17T02:20:59.242Z,7.39
2022-11-17T02:21:59.221Z,7.21
2022-11-17T02:22:59.213Z,7.15
2022-11-17T02:23:59.218Z,7.28
2022-11-17T02:24:59.209Z,7.40
2022-11-17T02:25:59.207Z,7.35
2022-11-17T02:26:59.203Z,7.35
2022-11-17T02:27:59.195Z,7.32
2022-11-17T02:28:59.392Z,7.40
2022-11-17T02:29:59.187Z,7.50
2022-11-17T02:30:59.185Z,7.49
2022-11-17T02:31:59.201Z,7.50
2022-11-17T02:32:59.177Z,7.49
2022-11-17T02:33:59.167Z,7.43
2022-11-17T02:34:59.164Z,7.28
2022-11-17T02:35:59.160Z,7.32
2022-11-17T02:36:59.154Z,7.40
2022-11-17T02:37:59.150Z,7.39
2022-11-17T02:38:59.151Z,7.42
2022-11-17T02:39:59.145Z,7.37
2022-11-17T02:40:59.139Z,7.31
2022-11-17T02:41:59.150Z,7.30
2022-11-17T02:42:59.128Z,7.25
2022-11-17T02:43:59.129Z,7.35
2022-11-17T02:44:59.123Z,7.28
2022-11-17T02:45:59.116Z,7.43
2022-11-17T02:46:59.118Z,7.39
2022-11-17T02:47:59.225Z,7.40
2022-11-17T02:48:59.104Z,7.34
2022-11-17T02:49:59.108Z,7.27
2022-11-17T02:50:59.095Z,7.31
2022-11-17T02:51:59.091Z,7.34
2022-11-17T02:52:59.093Z,7.42
2022-11-17T02:53:59.084Z,7.24
2022-11-17T02:54:59.084Z,7.34
2022-11-17T02:55:59.083Z,7.39
2022-11-17T02:56:59.070Z,7.39
2022-11-17T02:57:59.067Z,7.48
2022-11-17T02:58:59.063Z,7.45
2022-11-17T02:59:59.063Z,7.57
2022-11-17T03:00:59.051Z,7.49
2022-11-17T03:01:59.085Z,7.45
2022-11-17T03:02:59.043Z,7.48
2022-11-17T03:03:59.149Z,7.28
2022-11-17T03:04:59.038Z,7.35
2022-11-17T03:05:59.033Z,7.39
2022-11-17T03:06:59.059Z,7.42
2022-11-17T03:07:59.025Z,7.46
2022-11-17T03:08:59.017Z,7.30
2022-11-17T03:09:59.020Z,7.37
2022-11-17T03:10:59.015Z,7.12
2022-11-17T03:11:59.013Z,7.21
2022-11-17T03:12:59.002Z,7.16
2022-11-17T03:13:59.012Z,7.25
2022-11-17T03:14:59.000Z,7.37
2022-11-17T03:15:58.992Z,7.23
2022-11-17T03:16:58.991Z,7.13
2022-11-17T03:17:58.986Z,7.23
2022-11-17T03:18:58.980Z,7.32
2022-11-17T03:19:58.995Z,7.39
2022-11-17T03:20:58.967Z,7.35
2022-11-17T03:21:58.969Z,7.31
2022-11-17T03:22:58.962Z,7.32
2022-11-17T03:23:58.968Z,7.23
2022-11-17T03:24:58.969Z,7.12
2022-11-17T03:25:58.947Z,7.32
2022-11-17T03:26:58.948Z,7.34
2022-11-17T03:27:58.939Z,7.43
2022-11-17T03:28:58.938Z,7.37
2022-11-17T03:29:58.937Z,7.28
2022-11-17T03:30:58.937Z,7.37
2022-11-17T03:31:58.920Z,7.39
2022-11-17T03:32:58.919Z,7.31
2022-11-17T03:33:58.913Z,7.31
2022-11-17T03:34:58.911Z,7.21
2022-11-17T03:35:59.022Z,7.35
2022-11-17T03:36:58.899Z,7.21
2022-11-17T03:37:58.898Z,7.20
2022-11-17T03:38:58.893Z,7.24
2022-11-17T03:39:58.892Z,7.35
2022-11-17T03:40:58.884Z,7.32
2022-11-17T03:41:58.885Z,7.09
2022-11-17T03:42:58.878Z,7.03
2022-11-17T03:43:58.876Z,7.12
2022-11-17T03:44:58.872Z,7.30
2022-11-17T03:45:58.875Z,7.35
2022-11-17T03:46:58.861Z,7.24
2022-11-17T03:47:58.856Z,7.30
2022-11-17T03:48:58.856Z,7.40
2022-11-17T03:49:58.868Z,7.30
2022-11-17T03:50:58.843Z,7.37
2022-11-17T03:51:58.963Z,7.40
2022-11-17T03:52:58.835Z,7.15
2022-11-17T03:53:58.830Z,7.23
2022-11-17T03:54:58.858Z,7.23
2022-11-17T03:55:58.822Z,7.24
2022-11-17T03:56:58.819Z,7.10
2022-11-17T03:57:58.813Z,7.31
2022-11-17T03:58:58.811Z,7.20
2022-11-17T03:59:58.811Z,7.28
2022-11-17T04:00:58.799Z,7.23
2022-11-17T04:01:58.821Z,7.27
2022-11-17T04:02:58.800Z,7.25
2022-11-17T04:03:58.788Z,7.24
2022-11-17T04:04:58.782Z,7.31
2022-11-17T04:05:58.782Z,7.40
2022-11-17T04:06:58.801Z,7.40
2022-11-17T04:07:58.797Z,7.42
2022-11-17T04:08:58.766Z,7.35
2022-11-17T04:09:58.765Z,7.39
2022-11-17T04:10:58.758Z,7.35
2022-11-17T04:11:58.758Z,7.42
2022-11-17T04:12:58.748Z,7.34
2022-11-17T04:13:58.749Z,7.37
2022-11-17T04:14:58.745Z,7.24
2022-11-17T04:15:58.740Z,7.25
2022-11-17T04:16:58.736Z,7.24
2022-11-17T04:17:58.730Z,7.30
2022-11-17T04:18:59.235Z,7.25
2022-11-17T04:19:59.042Z,7.24
2022-11-17T04:20:58.718Z,7.31
2022-11-17T04:21:59.040Z,7.35
2022-11-17T04:22:58.713Z,7.32
2022-11-17T04:23:58.816Z,7.23
2022-11-17T04:24:58.703Z,7.25
2022-11-17T04:25:58.696Z,7.12
2022-11-17T04:26:58.690Z,7.17
2022-11-17T04:27:58.689Z,7.30
2022-11-17T04:28:58.683Z,7.24
2022-11-17T04:29:58.679Z,7.28
2022-11-17T04:30:58.674Z,7.30
2022-11-17T04:31:58.672Z,7.34
2022-11-17T04:32:58.667Z,7.30
2022-11-17T04:33:58.662Z,7.28
2022-11-17T04:34:58.661Z,7.31
2022-11-17T04:35:58.652Z,7.15
2022-11-17T04:37:01.634Z,7.27
2022-11-17T04:37:58.642Z,7.27
2022-11-17T04:38:58.638Z,7.20
2022-11-17T04:39:58.658Z,7.27
2022-11-17T04:40:58.631Z,7.28
2022-11-17T04:41:58.627Z,7.34
2022-11-17T04:42:58.622Z,7.31
2022-11-17T04:43:58.620Z,7.30
2022-11-17T04:44:58.628Z,7.30
2022-11-17T04:45:58.614Z,7.34
2022-11-17T04:46:58.615Z,7.37
2022-11-17T04:47:58.600Z,7.39
2022-11-17T04:48:58.600Z,7.39
2022-11-17T04:49:58.592Z,7.40
2022-11-17T04:50:58.593Z,7.37
2022-11-17T04:51:58.588Z,7.25
2022-11-17T04:52:58.581Z,7.30
2022-11-17T04:53:58.578Z,7.17
2022-11-17T04:54:58.573Z,7.28
2022-11-17T04:55:58.684Z,7.21
2022-11-17T04:56:58.567Z,7.28
2022-11-17T04:57:58.559Z,7.31
2022-11-17T04:58:58.558Z,7.27
2022-11-17T04:59:58.548Z,7.31
2022-11-17T05:00:58.550Z,7.43
2022-11-17T05:02:04.117Z,7.45
2022-11-17T05:02:58.541Z,7.40
2022-11-17T05:03:58.530Z,7.37
2022-11-17T05:04:58.531Z,7.37
2022-11-17T05:05:58.528Z,7.34
2022-11-17T05:06:58.555Z,7.40
2022-11-17T05:07:58.517Z,7.25
2022-11-17T05:08:58.515Z,7.28
2022-11-17T05:09:58.509Z,7.31
2022-11-17T05:10:58.640Z,7.37
2022-11-17T05:11:58.531Z,7.37
2022-11-17T05:12:58.499Z,7.30
2022-11-17T05:13:58.492Z,7.37
2022-11-17T05:14:58.500Z,7.43
2022-11-17T05:15:58.484Z,7.42
2022-11-17T05:16:58.492Z,7.40
2022-11-17T05:17:58.478Z,7.39
2022-11-17T05:18:58.474Z,7.34
2022-11-17T05:19:58.470Z,7.27
2022-11-17T05:20:58.464Z,7.39
2022-11-17T05:21:58.464Z,7.39
2022-11-17T05:23:02.503Z,7.34
2022-11-17T05:23:58.456Z,7.50
2022-11-17T05:24:58.451Z,7.43
2022-11-17T05:25:58.450Z,7.46
2022-11-17T05:26:58.442Z,7.55
2022-11-17T05:27:58.548Z,7.49
2022-11-17T05:28:58.430Z,7.61
2022-11-17T05:29:58.423Z,7.48
2022-11-17T05:30:58.422Z,7.40
2022-11-17T05:31:58.416Z,7.45
2022-11-17T05:32:58.419Z,7.49
2022-11-17T05:33:58.410Z,7.60
2022-11-17T05:34:58.407Z,7.55
2022-11-17T05:35:58.401Z,7.49
2022-11-17T05:36:58.398Z,7.49
2022-11-17T05:37:58.397Z,7.42
2022-11-17T05:38:58.395Z,7.46
2022-11-17T05:39:58.380Z,7.46
2022-11-17T05:40:58.380Z,7.57
2022-11-17T05:41:58.679Z,7.55
2022-11-17T05:42:58.372Z,7.57
2022-11-17T05:43:58.480Z,7.48
2022-11-17T05:44:58.363Z,7.72
2022-11-17T05:45:58.454Z,7.55
2022-11-17T05:46:58.354Z,7.71
2022-11-17T05:47:58.351Z,7.74
2022-11-17T05:48:58.348Z,7.72
2022-11-17T05:49:58.342Z,7.83
2022-11-17T05:50:58.433Z,7.74
2022-11-17T05:51:58.331Z,7.72
2022-11-17T05:52:58.335Z,7.71
2022-11-17T05:53:58.326Z,7.69
2022-11-17T05:54:58.323Z,7.61
2022-11-17T05:55:58.341Z,7.72
2022-11-17T05:56:58.312Z,7.52
2022-11-17T05:57:58.324Z,7.50
2022-11-17T05:58:58.305Z,7.50
2022-11-17T05:59:58.318Z,7.58
2022-11-17T06:00:58.389Z,7.49
2022-11-17T06:01:58.293Z,7.53
2022-11-17T06:02:58.292Z,7.68
2022-11-17T06:03:58.334Z,7.58
2022-11-17T06:04:58.279Z,7.50
2022-11-17T06:05:58.276Z,7.63
2022-11-17T06:06:58.324Z,7.71
2022-11-17T06:07:58.270Z,7.77
2022-11-17T06:08:58.262Z,7.68
2022-11-17T06:09:58.263Z,7.71
2022-11-17T06:10:58.281Z,7.80
2022-11-17T06:12:04.109Z,7.72
2022-11-17T06:12:58.248Z,7.87
2022-11-17T06:13:58.247Z,7.82
2022-11-17T06:14:58.237Z,7.74
2022-11-17T06:15:58.353Z,7.79
2022-11-17T06:16:58.230Z,7.61
2022-11-17T06:17:58.230Z,7.72
2022-11-17T06:18:58.223Z,7.79
2022-11-17T06:19:58.218Z,7.83
2022-11-17T06:20:58.212Z,7.74
2022-11-17T06:22:11.698Z,7.69
2022-11-17T06:22:58.207Z,7.71
2022-11-17T06:23:58.198Z,7.71
2022-11-17T06:24:58.202Z,7.86
2022-11-17T06:25:58.193Z,7.90
2022-11-17T06:26:58.190Z,7.95
2022-11-17T06:27:58.185Z,7.85
2022-11-17T06:28:58.186Z,7.89
2022-11-17T06:29:58.181Z,7.79
2022-11-17T06:30:58.170Z,7.74
2022-11-17T06:31:58.293Z,7.71
2022-11-17T06:32:58.166Z,7.74
2022-11-17T06:33:58.158Z,7.71
2022-11-17T06:34:58.159Z,7.57
2022-11-17T06:35:58.153Z,7.55
2022-11-17T06:36:58.154Z,7.71
2022-11-17T06:37:58.145Z,7.57
2022-11-17T06:38:58.141Z,7.71
2022-11-17T06:39:58.137Z,7.79
2022-11-17T06:40:58.137Z,7.75
2022-11-17T06:41:58.126Z,7.75
2022-11-17T06:42:58.150Z,7.74
2022-11-17T06:43:58.121Z,7.71
2022-11-17T06:44:58.114Z,7.77
2022-11-17T06:45:58.111Z,7.80
2022-11-17T06:46:58.119Z,7.83
2022-11-17T06:47:58.224Z,7.95
2022-11-17T06:48:58.101Z,7.75
2022-11-17T06:49:58.091Z,7.79
2022-11-17T06:50:58.093Z,7.74
2022-11-17T06:51:58.087Z,7.69
2022-11-17T06:52:58.081Z,7.82
2022-11-17T06:53:58.076Z,7.69
2022-11-17T06:54:58.070Z,7.68
2022-11-17T06:55:58.069Z,7.85
2022-11-17T06:56:58.068Z,7.83
2022-11-17T06:57:58.060Z,7.86
2022-11-17T06:58:58.053Z,8.04
2022-11-17T06:59:58.053Z,7.98
2022-11-17T07:00:58.066Z,7.97
2022-11-17T07:01:58.044Z,7.86
2022-11-17T07:02:58.036Z,7.79
2022-11-17T07:03:58.140Z,7.72
2022-11-17T07:04:58.030Z,7.86
2022-11-17T07:05:58.034Z,7.98
2022-11-17T07:06:58.370Z,7.93
2022-11-17T07:07:58.018Z,8.01
2022-11-17T07:08:58.012Z,7.83
2022-11-17T07:09:58.009Z,7.85
2022-11-17T07:10:58.008Z,7.71
2022-11-17T07:11:58.002Z,7.92
2022-11-17T07:12:57.995Z,7.95
2022-11-17T07:13:57.998Z,7.98
2022-11-17T07:14:57.991Z,7.98
2022-11-17T07:15:57.986Z,7.98
2022-11-17T07:16:57.982Z,7.82
2022-11-17T07:17:57.978Z,7.83
2022-11-17T07:18:57.971Z,7.93
2022-11-17T07:19:57.996Z,7.98
2022-11-17T07:20:58.439Z,7.98
2022-11-17T07:21:57.962Z,7.98
2022-11-17T07:22:57.953Z,8.15
2022-11-17T07:23:57.955Z,8.11
2022-11-17T07:24:57.944Z,8.11
2022-11-17T07:25:57.945Z,7.89
2022-11-17T07:26:57.939Z,7.95
2022-11-17T07:27:57.936Z,7.92
2022-11-17T07:28:57.930Z,7.92
2022-11-17T07:29:57.930Z,8.10
2022-11-17T07:30:57.920Z,8.05
2022-11-17T07:31:57.926Z,8.02
2022-11-17T07:32:57.919Z,8.07
2022-11-17T07:33:57.912Z,8.05
2022-11-17T07:34:57.908Z,8.00
2022-11-17T07:35:57.922Z,8.05
2022-11-17T07:36:57.892Z,8.05
2022-11-17T07:37:57.895Z,8.05
2022-11-17T07:38:57.887Z,8.08
2022-11-17T07:39:57.889Z,7.93
2022-11-17T07:40:57.879Z,7.93
2022-11-17T07:41:57.876Z,8.07
2022-11-17T07:42:57.873Z,8.05
2022-11-17T07:43:57.870Z,8.05
2022-11-17T07:44:57.864Z,8.00
2022-11-17T07:45:57.867Z,8.05
2022-11-17T07:46:57.863Z,8.11
2022-11-17T07:47:57.865Z,7.98
2022-11-17T07:48:57.850Z,7.89
2022-11-17T07:49:57.846Z,7.97
2022-11-17T07:50:57.852Z,8.11
2022-11-17T07:51:57.959Z,7.95
2022-11-17T07:52:57.842Z,8.02
2022-11-17T07:53:57.830Z,7.98
2022-11-17T07:54:57.825Z,8.01
2022-11-17T07:55:57.821Z,7.97
2022-11-17T07:56:57.820Z,8.07
2022-11-17T07:57:57.812Z,8.10
2022-11-17T07:58:57.806Z,8.05
2022-11-17T07:59:57.805Z,8.11
2022-11-17T08:00:57.865Z,8.29
2022-11-17T08:01:57.798Z,8.16
2022-11-17T08:02:57.790Z,8.11
2022-11-17T08:03:57.969Z,7.98
2022-11-17T08:04:57.783Z,8.08
2022-11-17T08:05:57.783Z,8.04
2022-11-17T08:06:57.812Z,8.16
2022-11-17T08:07:57.887Z,8.11
2022-11-17T08:08:57.770Z,8.10
2022-11-17T08:09:57.769Z,8.11
2022-11-17T08:10:57.758Z,8.12
2022-11-17T08:11:57.755Z,8.23
2022-11-17T08:12:57.747Z,8.26
2022-11-17T08:13:57.747Z,8.28
2022-11-17T08:14:57.743Z,8.10
2022-11-17T08:15:57.746Z,8.11
2022-11-17T08:16:57.731Z,8.18
2022-11-17T08:17:57.729Z,8.08
2022-11-17T08:18:57.729Z,8.04
2022-11-17T08:19:57.726Z,8.12
2022-11-17T08:20:57.729Z,8.11
2022-11-17T08:21:57.715Z,8.34
2022-11-17T08:22:57.708Z,8.16
2022-11-17T08:23:57.729Z,8.26
2022-11-17T08:24:57.700Z,8.10
2022-11-17T08:25:57.700Z,8.23
2022-11-17T08:26:57.708Z,8.25
2022-11-17T08:27:57.699Z,8.12
2022-11-17T08:28:58.891Z,8.26
2022-11-17T08:29:57.681Z,8.23
2022-11-17T08:30:57.703Z,8.41
2022-11-17T08:31:57.681Z,8.20
2022-11-17T08:32:57.673Z,8.29
2022-11-17T08:33:57.667Z,8.29
2022-11-17T08:34:57.664Z,8.10
2022-11-17T08:35:57.665Z,8.12
2022-11-17T08:36:57.654Z,8.15
2022-11-17T08:37:57.649Z,8.07
2022-11-17T08:38:57.650Z,8.11
2022-11-17T08:39:57.659Z,8.20
2022-11-17T08:40:57.642Z,8.30
2022-11-17T08:41:57.641Z,8.34
2022-11-17T08:43:00.891Z,8.30
2022-11-17T08:43:57.624Z,8.36
2022-11-17T08:44:57.625Z,8.41
2022-11-17T08:45:57.614Z,8.33
2022-11-17T08:46:57.616Z,8.23
2022-11-17T08:47:57.611Z,8.29
2022-11-17T08:48:57.622Z,8.10
2022-11-17T08:49:57.603Z,8.23
2022-11-17T08:50:57.602Z,8.26
2022-11-17T08:51:57.593Z,8.20
2022-11-17T08:52:57.592Z,8.37
2022-11-17T08:53:57.584Z,8.29
2022-11-17T08:54:57.637Z,8.28
2022-11-17T08:55:57.734Z,8.34
2022-11-17T08:56:57.754Z,8.38
2022-11-17T08:57:57.574Z,8.40
2022-11-17T08:58:57.569Z,8.30
2022-11-17T08:59:57.558Z,8.30
2022-11-17T09:01:02.279Z,8.10
2022-11-17T09:01:57.553Z,8.19
2022-11-17T09:02:57.558Z,8.22
2022-11-17T09:03:57.547Z,8.25
2022-11-17T09:04:57.542Z,8.29
2022-11-17T09:05:57.538Z,8.25
2022-11-17T09:06:57.605Z,8.18
2022-11-17T09:08:10.448Z,8.22
2022-11-17T09:08:58.008Z,8.30
2022-11-17T09:09:57.527Z,8.36
2022-11-17T09:10:57.523Z,8.29
2022-11-17T09:11:57.540Z,8.34
2022-11-17T09:12:57.513Z,8.26
2022-11-17T09:13:57.504Z,8.30
2022-11-17T09:14:57.508Z,8.28
2022-11-17T09:15:57.496Z,8.10
2022-11-17T09:16:57.494Z,8.12
2022-11-17T09:17:57.494Z,8.02
2022-11-17T09:18:57.487Z,8.11
2022-11-17T09:19:57.483Z,8.10
2022-11-17T09:20:57.484Z,8.26
2022-11-17T09:21:57.474Z,8.29
2022-11-17T09:22:57.474Z,8.22
2022-11-17T09:23:57.465Z,8.30
2022-11-17T09:24:57.467Z,8.26
2022-11-17T09:25:57.458Z,8.28
2022-11-17T09:26:57.580Z,8.25
2022-11-17T09:27:57.565Z,8.34
2022-11-17T09:28:57.446Z,8.12
2022-11-17T09:29:57.440Z,8.12
2022-11-17T09:30:57.512Z,8.19
2022-11-17T09:31:57.431Z,8.36
2022-11-17T09:32:57.434Z,8.25
2022-11-17T09:34:00.762Z,8.15
2022-11-17T09:34:57.432Z,8.30
2022-11-17T09:35:57.417Z,8.28
2022-11-17T09:36:57.416Z,8.29
2022-11-17T09:37:57.414Z,8.19
2022-11-17T09:38:57.406Z,8.16
2022-11-17T09:39:57.402Z,8.18
2022-11-17T09:40:57.401Z,8.33
2022-11-17T09:41:57.400Z,8.41
2022-11-17T09:42:57.398Z,8.59
2022-11-17T09:43:57.509Z,8.71
2022-11-17T09:44:57.388Z,8.56
2022-11-17T09:45:57.380Z,8.43
2022-11-17T09:46:57.376Z,8.23
2022-11-17T09:48:07.251Z,8.22
2022-11-17T09:48:57.369Z,8.11
2022-11-17T09:49:59.176Z,8.30
2022-11-17T09:50:57.364Z,8.30
2022-11-17T09:51:57.354Z,8.30
2022-11-17T09:52:57.355Z,8.38
2022-11-17T09:53:57.344Z,8.48
2022-11-17T09:54:57.354Z,8.43
2022-11-17T09:55:57.341Z,8.45
2022-11-17T09:56:57.344Z,8.45
2022-11-17T09:57:57.339Z,8.25
2022-11-17T09:58:57.330Z,8.41
2022-11-17T09:59:57.437Z,8.43
2022-11-17T10:00:57.372Z,8.48
2022-11-17T10:01:57.362Z,8.40
2022-11-17T10:02:57.318Z,8.33
2022-11-17T10:03:57.305Z,8.36
2022-11-17T10:04:57.307Z,8.29
2022-11-17T10:05:57.296Z,8.26
2022-11-17T10:06:57.380Z,8.34
2022-11-17T10:07:57.294Z,8.28
2022-11-17T10:08:57.292Z,8.28
2022-11-17T10:09:57.287Z,8.34
2022-11-17T10:10:57.282Z,8.30
2022-11-17T10:11:57.275Z,8.37
2022-11-17T10:12:57.275Z,8.38
2022-11-17T10:13:57.267Z,8.44
2022-11-17T10:14:57.267Z,8.41
2022-11-17T10:15:57.372Z,8.43
2022-11-17T10:16:57.270Z,8.36
2022-11-17T10:17:57.255Z,8.48
2022-11-17T10:18:57.254Z,8.44
2022-11-17T10:19:57.245Z,8.61
2022-11-17T10:20:57.244Z,8.63
2022-11-17T10:21:57.233Z,8.41
2022-11-17T10:22:57.237Z,8.52
2022-11-17T10:23:57.553Z,8.62
2022-11-17T10:24:57.231Z,8.59
2022-11-17T10:25:57.220Z,8.48
2022-11-17T10:26:57.222Z,8.50
2022-11-17T10:27:57.208Z,8.45
2022-11-17T10:28:57.216Z,8.52
2022-11-17T10:29:57.207Z,8.65
2022-11-17T10:30:57.204Z,8.61
2022-11-17T10:31:57.316Z,8.50
2022-11-17T10:32:57.199Z,8.41
2022-11-17T10:33:57.262Z,8.44
2022-11-17T10:34:57.192Z,8.43
2022-11-17T10:35:57.184Z,8.38
2022-11-17T10:36:57.181Z,8.37
2022-11-17T10:37:57.175Z,8.48
2022-11-17T10:38:57.178Z,8.43
2022-11-17T10:39:57.193Z,8.47
2022-11-17T10:40:57.164Z,8.40
2022-11-17T10:41:57.160Z,8.47
2022-11-17T10:42:57.175Z,8.58
2022-11-17T10:43:57.147Z,8.55
2022-11-17T10:44:57.163Z,8.56
2022-11-17T10:45:57.143Z,8.62
2022-11-17T10:47:01.925Z,8.61
2022-11-17T10:47:57.166Z,8.61
2022-11-17T10:48:57.130Z,8.55
2022-11-17T10:49:57.134Z,8.59
2022-11-17T10:50:57.139Z,8.62
2022-11-17T10:51:57.122Z,8.52
2022-11-17T10:52:57.119Z,8.58
2022-11-17T10:53:57.110Z,8.56
2022-11-17T10:54:57.109Z,8.59
2022-11-17T10:55:57.105Z,8.55
2022-11-17T10:56:57.106Z,8.59
2022-11-17T10:57:57.098Z,8.45
2022-11-17T10:58:57.098Z,8.65
2022-11-17T10:59:57.674Z,8.50
2022-11-17T11:00:57.144Z,8.47
2022-11-17T11:01:57.084Z,8.45
2022-11-17T11:02:57.080Z,8.48
2022-11-17T11:03:57.095Z,8.45
2022-11-17T11:04:57.069Z,8.50
2022-11-17T11:05:57.064Z,8.58
2022-11-17T11:06:57.122Z,8.45
2022-11-17T11:07:57.057Z,8.66
2022-11-17T11:08:57.061Z,8.70
2022-11-17T11:09:57.051Z,8.52
2022-11-17T11:10:57.055Z,8.59
2022-11-17T11:11:57.039Z,8.56
2022-11-17T11:12:57.037Z,8.48
2022-11-17T11:13:57.036Z,8.45
2022-11-17T11:14:57.038Z,8.55
2022-11-17T11:15:57.024Z,8.61
2022-11-17T11:16:57.029Z,8.58
2022-11-17T11:17:57.022Z,8.56
2022-11-17T11:18:57.018Z,8.41
2022-11-17T11:19:57.035Z,8.41
2022-11-17T11:20:57.009Z,8.44
2022-11-17T11:21:57.002Z,8.47
2022-11-17T11:22:57.006Z,8.58
2022-11-17T11:23:56.994Z,8.50
2022-11-17T11:24:57.013Z,8.53
2022-11-17T11:25:56.983Z,8.66
2022-11-17T11:26:56.991Z,8.63
2022-11-17T11:27:56.977Z,8.58
2022-11-17T11:28:56.978Z,8.61
2022-11-17T11:29:56.981Z,8.65
2022-11-17T11:30:56.976Z,8.62
2022-11-17T11:31:56.960Z,8.65
2022-11-17T11:32:56.961Z,8.45
2022-11-17T11:33:56.954Z,8.50
2022-11-17T11:34:56.958Z,8.50
2022-11-17T11:35:56.966Z,8.50
2022-11-17T11:36:56.948Z,8.44
2022-11-17T11:37:56.938Z,8.43
2022-11-17T11:38:56.936Z,8.53
2022-11-17T11:39:56.934Z,8.80
2022-11-17T11:40:56.929Z,8.59
2022-11-17T11:41:56.924Z,8.61
2022-11-17T11:42:56.920Z,8.52
2022-11-17T11:43:56.912Z,8.43
2022-11-17T11:44:56.914Z,8.48
2022-11-17T11:45:56.908Z,8.47
2022-11-17T11:46:56.931Z,8.38
2022-11-17T11:47:56.924Z,8.48
2022-11-17T11:48:56.898Z,8.44
2022-11-17T11:49:56.896Z,8.44
2022-11-17T11:50:56.892Z,8.41
2022-11-17T11:51:56.912Z,8.28
2022-11-17T11:52:56.885Z,8.28
2022-11-17T11:53:56.876Z,8.45
2022-11-17T11:54:56.877Z,8.45
2022-11-17T11:55:56.868Z,8.62
2022-11-17T11:56:56.880Z,8.58
2022-11-17T11:57:56.863Z,8.58
2022-11-17T11:58:56.862Z,8.56
2022-11-17T12:00:02.399Z,8.48
2022-11-17T12:00:56.852Z,8.58
2022-11-17T12:01:56.921Z,8.47
2022-11-17T12:02:56.886Z,8.50
2022-11-17T12:03:56.833Z,8.55
2022-11-17T12:04:56.833Z,8.61
2022-11-17T12:05:56.830Z,8.63
2022-11-17T12:06:56.868Z,8.70
2022-11-17T12:07:56.911Z,8.66
2022-11-17T12:08:56.818Z,8.61
2022-11-17T12:09:56.813Z,8.70
2022-11-17T12:10:56.811Z,8.50
2022-11-17T12:11:56.810Z,8.44
2022-11-17T12:12:56.807Z,8.44
2022-11-17T12:13:56.795Z,8.52
2022-11-17T12:14:56.794Z,8.45
2022-11-17T12:15:56.786Z,8.44
2022-11-17T12:16:56.788Z,8.61
2022-11-17T12:17:56.780Z,8.61
2022-11-17T12:18:56.783Z,8.62
2022-11-17T12:19:56.778Z,8.63
2022-11-17T12:20:56.773Z,8.66
2022-11-17T12:21:56.763Z,8.74
2022-11-17T12:22:56.766Z,8.81
2022-11-17T12:23:56.789Z,8.76
2022-11-17T12:24:56.756Z,8.63
2022-11-17T12:25:56.755Z,8.59
2022-11-17T12:26:56.753Z,8.47
2022-11-17T12:27:56.762Z,8.56
2022-11-17T12:28:56.738Z,8.62
2022-11-17T12:29:56.737Z,8.66
2022-11-17T12:30:56.735Z,8.65
2022-11-17T12:31:56.731Z,8.66
2022-11-17T12:32:56.727Z,8.47
2022-11-17T12:33:56.730Z,8.44
2022-11-17T12:34:56.718Z,8.56
2022-11-17T12:35:56.709Z,8.52
2022-11-17T12:36:56.711Z,8.43
2022-11-17T12:37:56.703Z,8.40
2022-11-17T12:38:56.704Z,8.41
2022-11-17T12:39:56.725Z,8.48
2022-11-17T12:40:56.695Z,8.41
2022-11-17T12:41:56.689Z,8.47
2022-11-17T12:42:56.685Z,8.53
2022-11-17T12:43:56.680Z,8.38
2022-11-17T12:44:56.687Z,8.37
2022-11-17T12:45:56.673Z,8.40
2022-11-17T12:46:56.680Z,8.41
2022-11-17T12:48:26.451Z,8.56
2022-11-17T12:48:56.726Z,8.37
2022-11-17T12:49:56.661Z,8.50
2022-11-17T12:51:01.875Z,8.62
2022-11-17T12:51:56.650Z,8.58
2022-11-17T12:52:56.654Z,8.44
2022-11-17T12:53:56.970Z,8.48
2022-11-17T12:54:56.638Z,8.44
2022-11-17T12:55:56.652Z,8.47
2022-11-17T12:56:56.628Z,8.52
2022-11-17T12:57:56.627Z,8.47
2022-11-17T12:58:56.625Z,8.48
2022-11-17T12:59:56.620Z,8.40
2022-11-17T13:00:56.690Z,8.43
2022-11-17T13:01:56.615Z,8.52
2022-11-17T13:02:56.603Z,8.44
2022-11-17T13:03:56.603Z,8.43
2022-11-17T13:04:56.596Z,8.63
2022-11-17T13:06:19.818Z,8.38
2022-11-17T13:06:56.652Z,8.38
2022-11-17T13:07:56.585Z,8.45
2022-11-17T13:08:56.574Z,8.47
2022-11-17T13:09:56.577Z,8.58
2022-11-17T13:10:56.576Z,8.53
2022-11-17T13:11:56.596Z,8.52
2022-11-17T13:12:56.557Z,8.47
2022-11-17T13:13:56.561Z,8.45
2022-11-17T13:14:56.557Z,8.43
2022-11-17T13:15:56.553Z,8.41
2022-11-17T13:16:56.546Z,8.50
2022-11-17T13:17:56.552Z,8.47
2022-11-17T13:18:56.537Z,8.47